International Virtual Aviation Organisation

Eastern Europe and Northern Asia MCD

 

Карточка аэропорта URSS

Внимание!
Информация на этой странице в стадии наполнения.
Если вы не увидели какой-то информации, или заметили неточность - пожалуйста сообщите нам!
Спасибо!
Команда RU-STAFF
Название аэропортаСочи
Название аэропорта (англ.)Sochi
Превышение89 ft. (27.1 m.)
Координаты43°26.634', 39°56.55'
Высота перехода1100m
Эшелон переходаFL050
Коды ответчика1060-1077
Зона ОрВДРостов-на-Дону РПИ (URRV)
Данные METARURSS 201000Z 23004MPS 200V270 9999 FEW050CB OVC130 18/11 Q1007 WS ALL RWY R02/010070 R06/010070 NOSIG RMK R06/27006MPS QFE754
Проноз погоды (TAF)URSS 200756Z 2009/2109 29007G14MPS 9999 SCT040CB OVC100 TEMPO 2009/2014 -SHRA FM201400 05003G08MPS 8000 BKN016 BKN040CB OVC100 TEMPO 2014/2107 29007G13MPS 2000 SHRA BR BKN005 BKN030CB OVC100 BECMG 2107/2109 29005G10MPS FEW010 SCT020TCU BKN100
NOTAMshow/hide NOTAM
AWOS   TABLE

Информация о ВПП

ВПП Длина ВПП (м.) Покрытие Курс ВПП Частота ILS
242890Цементобетон238 
202500Цементобетон202 
022500Цементобетон22110.5
062890Цементобетон58111.1

Диспетчерские позиции

Позывной Наименование органа УВД Частота
URSS_GNDСочи-Руление119.000
URSS_TWRСочи-Старт121.200
URSS_APPСочи-Подход118.300
URSS_R_APPСочи-Круг119.700
URSS_DELСочи-Деливери132.700
URSS_FM1119.000



Спутниковое изображение